sensor_id;sensor_type;location;lat;lon;timestamp;P1;durP1;ratioP1;P2;durP2;ratioP2
70675;SDS011;59069;52.242;20.900;2023-11-19T00:00:10;34.37;;;12.60;;
70675;SDS011;59069;52.242;20.900;2023-11-19T00:02:39;34.92;;;13.60;;
70675;SDS011;59069;52.242;20.900;2023-11-19T00:05:05;37.47;;;14.20;;
70675;SDS011;59069;52.242;20.900;2023-11-19T00:07:34;41.50;;;14.30;;
70675;SDS011;59069;52.242;20.900;2023-11-19T00:10:01;35.25;;;12.30;;
70675;SDS011;59069;52.242;20.900;2023-11-19T00:12:38;35.33;;;13.50;;
70675;SDS011;59069;52.242;20.900;2023-11-19T00:15:07;32.60;;;13.32;;
70675;SDS011;59069;52.242;20.900;2023-11-19T00:17:42;35.60;;;13.82;;
70675;SDS011;59069;52.242;20.900;2023-11-19T00:20:10;37.00;;;13.05;;
70675;SDS011;59069;52.242;20.900;2023-11-19T00:22:36;38.22;;;13.35;;
70675;SDS011;59069;52.242;20.900;2023-11-19T00:25:02;38.47;;;13.80;;
70675;SDS011;59069;52.242;20.900;2023-11-19T00:27:28;33.17;;;12.85;;
70675;SDS011;59069;52.242;20.900;2023-11-19T00:29:54;32.50;;;13.43;;
70675;SDS011;59069;52.242;20.900;2023-11-19T00:32:19;35.35;;;13.25;;
70675;SDS011;59069;52.242;20.900;2023-11-19T00:34:45;35.90;;;13.83;;
70675;SDS011;59069;52.242;20.900;2023-11-19T00:37:13;39.97;;;14.65;;
70675;SDS011;59069;52.242;20.900;2023-11-19T00:39:38;39.27;;;13.67;;
70675;SDS011;59069;52.242;20.900;2023-11-19T00:42:04;37.78;;;14.45;;
70675;SDS011;59069;52.242;20.900;2023-11-19T00:44:30;39.70;;;13.93;;
70675;SDS011;59069;52.242;20.900;2023-11-19T00:46:55;40.20;;;15.70;;
70675;SDS011;59069;52.242;20.900;2023-11-19T00:49:21;40.13;;;13.67;;
70675;SDS011;59069;52.242;20.900;2023-11-19T00:51:46;38.40;;;13.07;;
70675;SDS011;59069;52.242;20.900;2023-11-19T00:54:12;35.50;;;13.17;;
70675;SDS011;59069;52.242;20.900;2023-11-19T00:56:37;40.97;;;13.23;;
70675;SDS011;59069;52.242;20.900;2023-11-19T00:59:03;38.97;;;13.73;;
70675;SDS011;59069;52.242;20.900;2023-11-19T01:01:29;38.13;;;13.65;;
70675;SDS011;59069;52.242;20.900;2023-11-19T01:03:55;40.08;;;14.80;;
70675;SDS011;59069;52.242;20.900;2023-11-19T01:06:28;39.90;;;13.73;;
70675;SDS011;59069;52.242;20.900;2023-11-19T01:08:55;41.00;;;13.65;;
70675;SDS011;59069;52.242;20.900;2023-11-19T01:11:22;39.63;;;13.70;;
70675;SDS011;59069;52.242;20.900;2023-11-19T01:13:48;35.63;;;13.98;;
70675;SDS011;59069;52.242;20.900;2023-11-19T01:16:14;45.60;;;13.97;;
70675;SDS011;59069;52.242;20.900;2023-11-19T01:18:39;35.42;;;13.35;;
70675;SDS011;59069;52.242;20.900;2023-11-19T01:21:05;40.83;;;14.23;;
70675;SDS011;59069;52.242;20.900;2023-11-19T01:23:30;43.00;;;14.30;;
70675;SDS011;59069;52.242;20.900;2023-11-19T01:25:57;44.87;;;14.37;;
70675;SDS011;59069;52.242;20.900;2023-11-19T01:28:23;44.65;;;14.13;;
70675;SDS011;59069;52.242;20.900;2023-11-19T01:30:50;43.73;;;15.23;;
70675;SDS011;59069;52.242;20.900;2023-11-19T01:33:16;39.15;;;13.98;;
70675;SDS011;59069;52.242;20.900;2023-11-19T01:35:41;41.10;;;14.70;;
70675;SDS011;59069;52.242;20.900;2023-11-19T01:38:07;34.70;;;13.70;;
70675;SDS011;59069;52.242;20.900;2023-11-19T01:40:33;42.90;;;14.18;;
70675;SDS011;59069;52.242;20.900;2023-11-19T01:42:59;43.25;;;14.77;;
70675;SDS011;59069;52.242;20.900;2023-11-19T01:45:28;42.83;;;15.30;;
70675;SDS011;59069;52.242;20.900;2023-11-19T01:47:56;40.72;;;15.18;;
70675;SDS011;59069;52.242;20.900;2023-11-19T01:50:25;43.03;;;15.70;;
70675;SDS011;59069;52.242;20.900;2023-11-19T01:52:52;45.78;;;15.40;;
70675;SDS011;59069;52.242;20.900;2023-11-19T01:55:19;41.97;;;14.63;;
70675;SDS011;59069;52.242;20.900;2023-11-19T01:57:45;38.72;;;14.02;;
70675;SDS011;59069;52.242;20.900;2023-11-19T02:00:12;40.80;;;15.82;;
70675;SDS011;59069;52.242;20.900;2023-11-19T02:02:39;38.53;;;14.45;;
70675;SDS011;59069;52.242;20.900;2023-11-19T02:05:11;41.00;;;13.93;;
70675;SDS011;59069;52.242;20.900;2023-11-19T02:07:38;38.23;;;14.60;;
70675;SDS011;59069;52.242;20.900;2023-11-19T02:10:04;40.05;;;15.07;;
70675;SDS011;59069;52.242;20.900;2023-11-19T02:12:31;45.28;;;15.38;;
70675;SDS011;59069;52.242;20.900;2023-11-19T02:15:00;42.00;;;14.57;;
70675;SDS011;59069;52.242;20.900;2023-11-19T02:17:30;42.38;;;15.60;;
70675;SDS011;59069;52.242;20.900;2023-11-19T02:20:05;41.63;;;14.67;;
70675;SDS011;59069;52.242;20.900;2023-11-19T02:22:34;41.85;;;14.95;;
70675;SDS011;59069;52.242;20.900;2023-11-19T02:25:00;41.80;;;15.10;;
70675;SDS011;59069;52.242;20.900;2023-11-19T02:30:16;55.90;;;19.73;;
70675;SDS011;59069;52.242;20.900;2023-11-19T02:32:42;46.67;;;15.87;;
70675;SDS011;59069;52.242;20.900;2023-11-19T02:35:07;42.88;;;15.13;;
70675;SDS011;59069;52.242;20.900;2023-11-19T02:37:36;42.50;;;14.87;;
70675;SDS011;59069;52.242;20.900;2023-11-19T02:40:04;40.47;;;14.55;;
70675;SDS011;59069;52.242;20.900;2023-11-19T02:42:30;43.35;;;15.30;;
70675;SDS011;59069;52.242;20.900;2023-11-19T02:44:56;36.83;;;13.90;;
70675;SDS011;59069;52.242;20.900;2023-11-19T02:47:22;44.20;;;14.65;;
70675;SDS011;59069;52.242;20.900;2023-11-19T02:49:49;36.90;;;13.93;;
70675;SDS011;59069;52.242;20.900;2023-11-19T02:52:15;35.73;;;13.97;;
70675;SDS011;59069;52.242;20.900;2023-11-19T02:54:40;35.10;;;14.55;;
70675;SDS011;59069;52.242;20.900;2023-11-19T02:57:07;35.15;;;13.75;;
70675;SDS011;59069;52.242;20.900;2023-11-19T02:59:37;38.97;;;13.73;;
70675;SDS011;59069;52.242;20.900;2023-11-19T03:02:07;37.17;;;13.10;;
70675;SDS011;59069;52.242;20.900;2023-11-19T03:04:36;32.72;;;12.52;;
70675;SDS011;59069;52.242;20.900;2023-11-19T03:07:05;33.05;;;12.90;;
70675;SDS011;59069;52.242;20.900;2023-11-19T03:09:34;33.58;;;12.20;;
70675;SDS011;59069;52.242;20.900;2023-11-19T03:12:00;35.87;;;12.33;;
70675;SDS011;59069;52.242;20.900;2023-11-19T03:14:26;37.10;;;12.80;;
70675;SDS011;59069;52.242;20.900;2023-11-19T03:16:52;34.50;;;12.20;;
70675;SDS011;59069;52.242;20.900;2023-11-19T03:19:18;39.22;;;12.55;;
70675;SDS011;59069;52.242;20.900;2023-11-19T03:21:43;35.50;;;11.30;;
70675;SDS011;59069;52.242;20.900;2023-11-19T03:24:09;35.78;;;12.98;;
70675;SDS011;59069;52.242;20.900;2023-11-19T03:26:35;30.57;;;11.37;;
70675;SDS011;59069;52.242;20.900;2023-11-19T03:29:02;36.42;;;13.65;;
70675;SDS011;59069;52.242;20.900;2023-11-19T03:31:28;33.03;;;11.70;;
70675;SDS011;59069;52.242;20.900;2023-11-19T03:33:53;37.13;;;12.03;;
70675;SDS011;59069;52.242;20.900;2023-11-19T03:36:19;31.95;;;11.27;;
70675;SDS011;59069;52.242;20.900;2023-11-19T03:38:44;33.53;;;12.20;;
70675;SDS011;59069;52.242;20.900;2023-11-19T03:41:13;33.43;;;11.93;;
70675;SDS011;59069;52.242;20.900;2023-11-19T03:43:40;33.92;;;12.25;;
70675;SDS011;59069;52.242;20.900;2023-11-19T03:46:18;30.10;;;10.57;;
70675;SDS011;59069;52.242;20.900;2023-11-19T03:48:44;27.95;;;10.85;;
70675;SDS011;59069;52.242;20.900;2023-11-19T03:51:11;30.47;;;11.43;;
70675;SDS011;59069;52.242;20.900;2023-11-19T03:53:40;30.83;;;10.00;;
70675;SDS011;59069;52.242;20.900;2023-11-19T03:56:10;34.88;;;11.88;;
70675;SDS011;59069;52.242;20.900;2023-11-19T03:58:36;29.95;;;11.13;;
70675;SDS011;59069;52.242;20.900;2023-11-19T04:01:03;29.75;;;10.48;;
70675;SDS011;59069;52.242;20.900;2023-11-19T04:03:29;32.43;;;10.77;;
70675;SDS011;59069;52.242;20.900;2023-11-19T04:05:55;35.45;;;12.25;;
70675;SDS011;59069;52.242;20.900;2023-11-19T04:08:21;29.03;;;10.63;;
70675;SDS011;59069;52.242;20.900;2023-11-19T04:10:46;27.98;;;10.15;;
70675;SDS011;59069;52.242;20.900;2023-11-19T04:13:12;28.07;;;10.13;;
70675;SDS011;59069;52.242;20.900;2023-11-19T04:15:37;31.27;;;11.13;;
70675;SDS011;59069;52.242;20.900;2023-11-19T04:18:03;32.92;;;11.38;;
70675;SDS011;59069;52.242;20.900;2023-11-19T04:20:28;34.67;;;11.27;;
70675;SDS011;59069;52.242;20.900;2023-11-19T04:22:54;32.40;;;10.70;;
70675;SDS011;59069;52.242;20.900;2023-11-19T04:25:19;30.07;;;11.27;;
70675;SDS011;59069;52.242;20.900;2023-11-19T04:27:45;30.48;;;10.60;;
70675;SDS011;59069;52.242;20.900;2023-11-19T04:30:11;30.30;;;10.32;;
70675;SDS011;59069;52.242;20.900;2023-11-19T04:32:36;32.90;;;11.00;;
70675;SDS011;59069;52.242;20.900;2023-11-19T04:35:02;33.22;;;11.55;;
70675;SDS011;59069;52.242;20.900;2023-11-19T04:37:28;30.93;;;10.33;;
70675;SDS011;59069;52.242;20.900;2023-11-19T04:39:54;35.30;;;11.00;;
70675;SDS011;59069;52.242;20.900;2023-11-19T04:42:21;28.90;;;10.83;;
70675;SDS011;59069;52.242;20.900;2023-11-19T04:44:47;34.83;;;12.32;;
70675;SDS011;59069;52.242;20.900;2023-11-19T04:47:13;30.73;;;11.40;;
70675;SDS011;59069;52.242;20.900;2023-11-19T04:49:42;28.93;;;10.70;;
70675;SDS011;59069;52.242;20.900;2023-11-19T04:52:08;30.80;;;10.48;;
70675;SDS011;59069;52.242;20.900;2023-11-19T04:54:34;33.13;;;11.02;;
70675;SDS011;59069;52.242;20.900;2023-11-19T04:56:59;28.47;;;10.27;;
70675;SDS011;59069;52.242;20.900;2023-11-19T04:59:25;29.88;;;9.88;;
70675;SDS011;59069;52.242;20.900;2023-11-19T05:01:50;32.87;;;10.47;;
70675;SDS011;59069;52.242;20.900;2023-11-19T05:04:16;38.20;;;11.80;;
70675;SDS011;59069;52.242;20.900;2023-11-19T05:06:46;38.97;;;12.25;;
70675;SDS011;59069;52.242;20.900;2023-11-19T05:09:12;28.70;;;10.25;;
70675;SDS011;59069;52.242;20.900;2023-11-19T05:11:38;30.57;;;10.90;;
70675;SDS011;59069;52.242;20.900;2023-11-19T05:14:05;29.08;;;10.65;;
70675;SDS011;59069;52.242;20.900;2023-11-19T05:16:31;29.55;;;10.13;;
70675;SDS011;59069;52.242;20.900;2023-11-19T05:18:56;33.87;;;10.93;;
70675;SDS011;59069;52.242;20.900;2023-11-19T05:21:22;33.55;;;10.90;;
70675;SDS011;59069;52.242;20.900;2023-11-19T05:23:48;31.70;;;10.83;;
70675;SDS011;59069;52.242;20.900;2023-11-19T05:26:20;31.42;;;10.00;;
70675;SDS011;59069;52.242;20.900;2023-11-19T05:28:46;33.45;;;10.68;;
70675;SDS011;59069;52.242;20.900;2023-11-19T05:31:12;30.07;;;10.60;;
70675;SDS011;59069;52.242;20.900;2023-11-19T05:33:38;27.90;;;10.45;;
70675;SDS011;59069;52.242;20.900;2023-11-19T05:36:04;29.00;;;9.50;;
70675;SDS011;59069;52.242;20.900;2023-11-19T05:38:30;27.38;;;9.57;;
70675;SDS011;59069;52.242;20.900;2023-11-19T05:40:55;33.80;;;12.00;;
70675;SDS011;59069;52.242;20.900;2023-11-19T05:43:21;33.03;;;10.07;;
70675;SDS011;59069;52.242;20.900;2023-11-19T05:45:47;32.22;;;10.32;;
70675;SDS011;59069;52.242;20.900;2023-11-19T05:48:12;31.80;;;10.50;;
70675;SDS011;59069;52.242;20.900;2023-11-19T05:50:38;35.38;;;11.77;;
70675;SDS011;59069;52.242;20.900;2023-11-19T05:53:04;31.33;;;11.10;;
70675;SDS011;59069;52.242;20.900;2023-11-19T05:55:35;33.88;;;11.60;;
70675;SDS011;59069;52.242;20.900;2023-11-19T05:58:10;32.97;;;10.88;;
70675;SDS011;59069;52.242;20.900;2023-11-19T06:00:37;37.90;;;12.18;;
70675;SDS011;59069;52.242;20.900;2023-11-19T06:03:04;34.20;;;11.20;;
70675;SDS011;59069;52.242;20.900;2023-11-19T06:05:29;34.97;;;9.93;;
70675;SDS011;59069;52.242;20.900;2023-11-19T06:07:54;29.97;;;10.27;;
70675;SDS011;59069;52.242;20.900;2023-11-19T06:10:20;36.72;;;11.43;;
70675;SDS011;59069;52.242;20.900;2023-11-19T06:12:46;33.17;;;11.47;;
70675;SDS011;59069;52.242;20.900;2023-11-19T06:15:12;32.75;;;10.27;;
70675;SDS011;59069;52.242;20.900;2023-11-19T06:17:38;29.57;;;10.40;;
70675;SDS011;59069;52.242;20.900;2023-11-19T06:20:04;30.00;;;10.43;;
70675;SDS011;59069;52.242;20.900;2023-11-19T06:22:30;31.77;;;10.77;;
70675;SDS011;59069;52.242;20.900;2023-11-19T06:24:56;30.00;;;10.40;;
70675;SDS011;59069;52.242;20.900;2023-11-19T06:27:21;27.15;;;9.35;;
70675;SDS011;59069;52.242;20.900;2023-11-19T06:29:47;25.63;;;8.60;;
70675;SDS011;59069;52.242;20.900;2023-11-19T06:32:13;24.33;;;9.10;;
70675;SDS011;59069;52.242;20.900;2023-11-19T06:34:38;23.73;;;7.90;;
70675;SDS011;59069;52.242;20.900;2023-11-19T06:37:04;27.40;;;9.00;;
70675;SDS011;59069;52.242;20.900;2023-11-19T06:39:29;22.67;;;8.32;;
70675;SDS011;59069;52.242;20.900;2023-11-19T06:41:55;20.97;;;7.70;;
70675;SDS011;59069;52.242;20.900;2023-11-19T06:44:21;21.08;;;8.30;;
70675;SDS011;59069;52.242;20.900;2023-11-19T06:46:48;21.90;;;7.80;;
70675;SDS011;59069;52.242;20.900;2023-11-19T06:49:14;21.63;;;7.65;;
70675;SDS011;59069;52.242;20.900;2023-11-19T06:51:42;20.30;;;7.40;;
70675;SDS011;59069;52.242;20.900;2023-11-19T06:54:09;19.90;;;6.57;;
70675;SDS011;59069;52.242;20.900;2023-11-19T06:56:34;19.53;;;6.83;;
70675;SDS011;59069;52.242;20.900;2023-11-19T06:58:59;18.83;;;7.83;;
70675;SDS011;59069;52.242;20.900;2023-11-19T07:01:25;18.30;;;6.72;;
70675;SDS011;59069;52.242;20.900;2023-11-19T07:03:50;16.47;;;6.97;;
70675;SDS011;59069;52.242;20.900;2023-11-19T07:06:16;17.60;;;6.20;;
70675;SDS011;59069;52.242;20.900;2023-11-19T07:08:42;19.42;;;7.07;;
70675;SDS011;59069;52.242;20.900;2023-11-19T07:11:09;19.00;;;6.85;;
70675;SDS011;59069;52.242;20.900;2023-11-19T07:13:36;17.03;;;6.60;;
70675;SDS011;59069;52.242;20.900;2023-11-19T07:16:02;16.90;;;6.07;;
70675;SDS011;59069;52.242;20.900;2023-11-19T07:18:28;16.83;;;6.22;;
70675;SDS011;59069;52.242;20.900;2023-11-19T07:20:54;17.17;;;6.03;;
70675;SDS011;59069;52.242;20.900;2023-11-19T07:23:19;15.10;;;5.85;;
70675;SDS011;59069;52.242;20.900;2023-11-19T07:25:46;14.20;;;5.60;;
70675;SDS011;59069;52.242;20.900;2023-11-19T07:28:12;15.70;;;5.70;;
70675;SDS011;59069;52.242;20.900;2023-11-19T07:30:39;14.23;;;6.10;;
70675;SDS011;59069;52.242;20.900;2023-11-19T07:33:05;15.33;;;6.07;;
70675;SDS011;59069;52.242;20.900;2023-11-19T07:35:31;14.32;;;5.45;;
70675;SDS011;59069;52.242;20.900;2023-11-19T07:37:57;14.47;;;5.63;;
70675;SDS011;59069;52.242;20.900;2023-11-19T07:40:23;14.82;;;5.47;;
70675;SDS011;59069;52.242;20.900;2023-11-19T07:42:49;16.02;;;5.68;;
70675;SDS011;59069;52.242;20.900;2023-11-19T07:45:15;15.55;;;6.13;;
70675;SDS011;59069;52.242;20.900;2023-11-19T07:47:41;16.40;;;5.80;;
70675;SDS011;59069;52.242;20.900;2023-11-19T07:50:09;16.35;;;6.45;;
70675;SDS011;59069;52.242;20.900;2023-11-19T07:52:34;15.05;;;5.93;;
70675;SDS011;59069;52.242;20.900;2023-11-19T07:55:00;16.37;;;5.77;;
70675;SDS011;59069;52.242;20.900;2023-11-19T07:57:26;16.35;;;5.97;;
70675;SDS011;59069;52.242;20.900;2023-11-19T07:59:55;14.07;;;4.65;;
70675;SDS011;59069;52.242;20.900;2023-11-19T08:02:20;15.47;;;6.07;;
70675;SDS011;59069;52.242;20.900;2023-11-19T08:04:46;16.10;;;6.15;;
70675;SDS011;59069;52.242;20.900;2023-11-19T08:07:15;15.40;;;5.47;;
70675;SDS011;59069;52.242;20.900;2023-11-19T08:09:40;14.82;;;6.75;;
70675;SDS011;59069;52.242;20.900;2023-11-19T08:12:06;15.47;;;5.40;;
70675;SDS011;59069;52.242;20.900;2023-11-19T08:14:32;17.00;;;5.70;;
70675;SDS011;59069;52.242;20.900;2023-11-19T08:16:58;14.27;;;5.93;;
70675;SDS011;59069;52.242;20.900;2023-11-19T08:19:23;17.20;;;6.30;;
70675;SDS011;59069;52.242;20.900;2023-11-19T08:21:49;17.20;;;6.20;;
70675;SDS011;59069;52.242;20.900;2023-11-19T08:24:14;16.77;;;5.70;;
70675;SDS011;59069;52.242;20.900;2023-11-19T08:26:39;17.60;;;6.50;;
70675;SDS011;59069;52.242;20.900;2023-11-19T08:29:05;16.53;;;6.30;;
70675;SDS011;59069;52.242;20.900;2023-11-19T08:31:30;18.33;;;7.43;;
70675;SDS011;59069;52.242;20.900;2023-11-19T08:33:56;16.20;;;6.20;;
70675;SDS011;59069;52.242;20.900;2023-11-19T08:36:21;19.20;;;6.70;;
70675;SDS011;59069;52.242;20.900;2023-11-19T08:38:47;15.30;;;6.30;;
70675;SDS011;59069;52.242;20.900;2023-11-19T08:41:13;17.60;;;6.03;;
70675;SDS011;59069;52.242;20.900;2023-11-19T08:43:38;16.53;;;6.63;;
70675;SDS011;59069;52.242;20.900;2023-11-19T08:46:09;18.98;;;7.15;;
70675;SDS011;59069;52.242;20.900;2023-11-19T08:48:35;17.92;;;6.88;;
70675;SDS011;59069;52.242;20.900;2023-11-19T08:51:01;16.57;;;6.13;;
70675;SDS011;59069;52.242;20.900;2023-11-19T08:53:26;16.80;;;7.10;;
70675;SDS011;59069;52.242;20.900;2023-11-19T08:55:52;18.87;;;6.53;;
70675;SDS011;59069;52.242;20.900;2023-11-19T08:58:17;16.65;;;6.43;;
70675;SDS011;59069;52.242;20.900;2023-11-19T09:00:43;18.77;;;7.13;;
70675;SDS011;59069;52.242;20.900;2023-11-19T09:03:08;19.50;;;6.63;;
70675;SDS011;59069;52.242;20.900;2023-11-19T09:05:34;18.05;;;6.93;;
70675;SDS011;59069;52.242;20.900;2023-11-19T09:07:59;16.47;;;6.50;;
70675;SDS011;59069;52.242;20.900;2023-11-19T09:10:25;19.35;;;6.68;;
70675;SDS011;59069;52.242;20.900;2023-11-19T09:12:52;19.87;;;6.93;;
70675;SDS011;59069;52.242;20.900;2023-11-19T09:15:17;18.75;;;6.88;;
70675;SDS011;59069;52.242;20.900;2023-11-19T09:17:43;19.67;;;6.87;;
70675;SDS011;59069;52.242;20.900;2023-11-19T09:20:08;17.90;;;7.03;;
70675;SDS011;59069;52.242;20.900;2023-11-19T09:22:37;18.25;;;6.47;;
70675;SDS011;59069;52.242;20.900;2023-11-19T09:25:02;23.83;;;9.23;;
70675;SDS011;59069;52.242;20.900;2023-11-19T09:27:31;32.88;;;13.27;;
70675;SDS011;59069;52.242;20.900;2023-11-19T09:29:57;18.43;;;6.67;;
70675;SDS011;59069;52.242;20.900;2023-11-19T09:32:23;15.82;;;6.20;;
70675;SDS011;59069;52.242;20.900;2023-11-19T09:34:49;20.20;;;6.60;;
70675;SDS011;59069;52.242;20.900;2023-11-19T09:37:15;15.73;;;6.80;;
70675;SDS011;59069;52.242;20.900;2023-11-19T09:39:40;17.98;;;7.13;;
70675;SDS011;59069;52.242;20.900;2023-11-19T09:42:08;17.63;;;6.97;;
70675;SDS011;59069;52.242;20.900;2023-11-19T09:44:34;16.42;;;6.70;;
70675;SDS011;59069;52.242;20.900;2023-11-19T09:47:02;19.98;;;6.68;;
70675;SDS011;59069;52.242;20.900;2023-11-19T09:49:29;17.10;;;6.68;;
70675;SDS011;59069;52.242;20.900;2023-11-19T09:51:55;17.55;;;6.38;;
70675;SDS011;59069;52.242;20.900;2023-11-19T09:54:20;22.30;;;7.50;;
70675;SDS011;59069;52.242;20.900;2023-11-19T09:56:46;19.38;;;6.97;;
70675;SDS011;59069;52.242;20.900;2023-11-19T09:59:13;16.73;;;6.93;;
70675;SDS011;59069;52.242;20.900;2023-11-19T10:01:38;19.70;;;6.97;;
70675;SDS011;59069;52.242;20.900;2023-11-19T10:04:05;20.02;;;7.45;;
70675;SDS011;59069;52.242;20.900;2023-11-19T10:06:32;19.93;;;7.53;;
70675;SDS011;59069;52.242;20.900;2023-11-19T10:08:57;19.77;;;7.13;;
70675;SDS011;59069;52.242;20.900;2023-11-19T10:11:24;20.10;;;7.95;;
70675;SDS011;59069;52.242;20.900;2023-11-19T10:13:51;20.67;;;7.23;;
70675;SDS011;59069;52.242;20.900;2023-11-19T10:16:18;20.35;;;7.80;;
70675;SDS011;59069;52.242;20.900;2023-11-19T10:18:47;18.90;;;6.77;;
70675;SDS011;59069;52.242;20.900;2023-11-19T10:21:16;18.40;;;7.40;;
70675;SDS011;59069;52.242;20.900;2023-11-19T10:23:50;21.00;;;7.97;;
70675;SDS011;59069;52.242;20.900;2023-11-19T10:26:16;20.20;;;7.78;;
70675;SDS011;59069;52.242;20.900;2023-11-19T10:28:43;20.17;;;7.53;;
70675;SDS011;59069;52.242;20.900;2023-11-19T10:31:11;17.57;;;6.77;;
70675;SDS011;59069;52.242;20.900;2023-11-19T10:33:39;18.67;;;6.57;;
70675;SDS011;59069;52.242;20.900;2023-11-19T10:36:05;20.75;;;6.95;;
70675;SDS011;59069;52.242;20.900;2023-11-19T10:38:31;18.65;;;7.63;;
70675;SDS011;59069;52.242;20.900;2023-11-19T10:40:57;20.90;;;7.83;;
70675;SDS011;59069;52.242;20.900;2023-11-19T10:43:24;19.35;;;7.65;;
70675;SDS011;59069;52.242;20.900;2023-11-19T10:45:50;22.25;;;8.40;;
70675;SDS011;59069;52.242;20.900;2023-11-19T10:48:15;19.40;;;7.40;;
70675;SDS011;59069;52.242;20.900;2023-11-19T10:50:42;21.15;;;7.88;;
70675;SDS011;59069;52.242;20.900;2023-11-19T10:53:10;20.30;;;7.47;;
70675;SDS011;59069;52.242;20.900;2023-11-19T10:55:40;18.77;;;7.60;;
70675;SDS011;59069;52.242;20.900;2023-11-19T10:58:09;21.60;;;8.35;;
70675;SDS011;59069;52.242;20.900;2023-11-19T11:03:12;20.23;;;7.07;;
70675;SDS011;59069;52.242;20.900;2023-11-19T11:05:42;19.23;;;7.60;;
70675;SDS011;59069;52.242;20.900;2023-11-19T11:08:08;21.88;;;7.65;;
70675;SDS011;59069;52.242;20.900;2023-11-19T11:10:35;18.83;;;7.60;;
70675;SDS011;59069;52.242;20.900;2023-11-19T11:13:07;19.67;;;7.70;;
70675;SDS011;59069;52.242;20.900;2023-11-19T11:15:33;19.73;;;7.22;;
70675;SDS011;59069;52.242;20.900;2023-11-19T11:18:00;21.30;;;7.55;;
70675;SDS011;59069;52.242;20.900;2023-11-19T11:20:32;23.10;;;8.35;;
70675;SDS011;59069;52.242;20.900;2023-11-19T11:39:34;23.63;;;8.30;;
70675;SDS011;59069;52.242;20.900;2023-11-19T11:50:08;21.00;;;8.18;;
70675;SDS011;59069;52.242;20.900;2023-11-19T11:55:36;20.92;;;8.05;;
70675;SDS011;59069;52.242;20.900;2023-11-19T11:58:20;19.85;;;7.65;;
70675;SDS011;59069;52.242;20.900;2023-11-19T12:00:46;33.35;;;13.43;;
70675;SDS011;59069;52.242;20.900;2023-11-19T12:03:13;22.50;;;9.73;;
70675;SDS011;59069;52.242;20.900;2023-11-19T12:05:39;19.23;;;7.57;;
70675;SDS011;59069;52.242;20.900;2023-11-19T12:08:07;22.88;;;8.43;;
70675;SDS011;59069;52.242;20.900;2023-11-19T12:10:48;21.50;;;8.60;;
70675;SDS011;59069;52.242;20.900;2023-11-19T12:13:19;24.47;;;8.80;;
70675;SDS011;59069;52.242;20.900;2023-11-19T12:18:28;57.08;;;24.27;;
70675;SDS011;59069;52.242;20.900;2023-11-19T12:20:55;53.15;;;20.58;;
70675;SDS011;59069;52.242;20.900;2023-11-19T12:23:21;26.35;;;10.82;;
70675;SDS011;59069;52.242;20.900;2023-11-19T12:25:47;21.20;;;8.23;;
70675;SDS011;59069;52.242;20.900;2023-11-19T12:28:12;23.05;;;9.05;;
70675;SDS011;59069;52.242;20.900;2023-11-19T12:30:39;19.53;;;7.03;;
70675;SDS011;59069;52.242;20.900;2023-11-19T12:33:07;23.80;;;8.98;;
70675;SDS011;59069;52.242;20.900;2023-11-19T12:35:38;21.85;;;8.10;;
70675;SDS011;59069;52.242;20.900;2023-11-19T12:38:07;24.00;;;9.37;;
70675;SDS011;59069;52.242;20.900;2023-11-19T12:40:33;23.35;;;9.00;;
70675;SDS011;59069;52.242;20.900;2023-11-19T12:43:02;23.53;;;8.50;;
70675;SDS011;59069;52.242;20.900;2023-11-19T12:45:36;19.00;;;8.18;;
70675;SDS011;59069;52.242;20.900;2023-11-19T12:48:05;23.27;;;8.10;;
70675;SDS011;59069;52.242;20.900;2023-11-19T12:50:53;19.13;;;7.97;;
70675;SDS011;59069;52.242;20.900;2023-11-19T12:53:21;24.80;;;9.07;;
70675;SDS011;59069;52.242;20.900;2023-11-19T12:55:47;23.42;;;8.23;;
70675;SDS011;59069;52.242;20.900;2023-11-19T12:58:33;21.02;;;7.95;;
70675;SDS011;59069;52.242;20.900;2023-11-19T13:01:04;21.00;;;8.18;;
70675;SDS011;59069;52.242;20.900;2023-11-19T13:03:31;22.73;;;8.90;;
70675;SDS011;59069;52.242;20.900;2023-11-19T13:06:04;23.73;;;9.00;;
70675;SDS011;59069;52.242;20.900;2023-11-19T13:08:48;24.67;;;8.65;;
70675;SDS011;59069;52.242;20.900;2023-11-19T13:11:34;18.60;;;7.50;;
70675;SDS011;59069;52.242;20.900;2023-11-19T13:14:04;21.15;;;8.13;;
70675;SDS011;59069;52.242;20.900;2023-11-19T13:16:31;20.67;;;8.30;;
70675;SDS011;59069;52.242;20.900;2023-11-19T13:18:56;18.42;;;8.57;;
70675;SDS011;59069;52.242;20.900;2023-11-19T13:21:23;22.10;;;8.88;;
70675;SDS011;59069;52.242;20.900;2023-11-19T13:23:49;21.48;;;8.10;;
70675;SDS011;59069;52.242;20.900;2023-11-19T13:26:15;22.83;;;9.00;;
70675;SDS011;59069;52.242;20.900;2023-11-19T13:28:41;20.03;;;7.77;;
70675;SDS011;59069;52.242;20.900;2023-11-19T13:31:06;18.60;;;8.02;;
70675;SDS011;59069;52.242;20.900;2023-11-19T13:33:32;22.35;;;7.82;;
70675;SDS011;59069;52.242;20.900;2023-11-19T13:35:58;18.63;;;7.00;;
70675;SDS011;59069;52.242;20.900;2023-11-19T13:38:24;23.88;;;8.38;;
70675;SDS011;59069;52.242;20.900;2023-11-19T13:40:50;21.53;;;8.30;;
70675;SDS011;59069;52.242;20.900;2023-11-19T13:43:16;20.95;;;8.13;;
70675;SDS011;59069;52.242;20.900;2023-11-19T13:45:41;21.43;;;7.83;;
70675;SDS011;59069;52.242;20.900;2023-11-19T13:48:07;22.40;;;8.10;;
70675;SDS011;59069;52.242;20.900;2023-11-19T13:50:32;21.38;;;8.27;;
70675;SDS011;59069;52.242;20.900;2023-11-19T13:52:59;21.17;;;8.52;;
70675;SDS011;59069;52.242;20.900;2023-11-19T13:55:24;22.33;;;8.77;;
70675;SDS011;59069;52.242;20.900;2023-11-19T13:57:50;19.98;;;8.25;;
70675;SDS011;59069;52.242;20.900;2023-11-19T14:03:28;22.85;;;8.52;;
70675;SDS011;59069;52.242;20.900;2023-11-19T14:05:54;25.73;;;10.47;;
70675;SDS011;59069;52.242;20.900;2023-11-19T14:08:20;24.75;;;9.73;;
70675;SDS011;59069;52.242;20.900;2023-11-19T14:10:45;21.80;;;8.20;;
70675;SDS011;59069;52.242;20.900;2023-11-19T14:13:11;20.70;;;8.00;;
70675;SDS011;59069;52.242;20.900;2023-11-19T14:15:36;23.00;;;8.43;;
70675;SDS011;59069;52.242;20.900;2023-11-19T14:18:02;24.52;;;9.02;;
70675;SDS011;59069;52.242;20.900;2023-11-19T14:20:28;24.67;;;9.53;;
70675;SDS011;59069;52.242;20.900;2023-11-19T14:22:54;23.67;;;8.43;;
70675;SDS011;59069;52.242;20.900;2023-11-19T14:25:19;25.37;;;9.40;;
70675;SDS011;59069;52.242;20.900;2023-11-19T14:27:46;23.27;;;8.98;;
70675;SDS011;59069;52.242;20.900;2023-11-19T14:30:12;21.43;;;8.47;;
70675;SDS011;59069;52.242;20.900;2023-11-19T14:32:41;23.52;;;9.70;;
70675;SDS011;59069;52.242;20.900;2023-11-19T14:35:09;29.17;;;9.73;;
70675;SDS011;59069;52.242;20.900;2023-11-19T14:37:35;20.77;;;7.10;;
70675;SDS011;59069;52.242;20.900;2023-11-19T14:40:01;27.50;;;9.32;;
70675;SDS011;59069;52.242;20.900;2023-11-19T14:42:29;22.08;;;9.30;;
70675;SDS011;59069;52.242;20.900;2023-11-19T14:44:55;50.73;;;19.43;;
70675;SDS011;59069;52.242;20.900;2023-11-19T14:47:20;33.00;;;12.90;;
70675;SDS011;59069;52.242;20.900;2023-11-19T14:49:46;27.50;;;10.07;;
70675;SDS011;59069;52.242;20.900;2023-11-19T14:52:12;25.75;;;9.77;;